sensor_id;sensor_type;location;lat;lon;timestamp;pressure;altitude;pressure_sealevel;temperature;humidity
84134;BME280;74235;48.688;9.708;2024-01-16T00:02:12;96954.06;;;23.33;32.26
84134;BME280;74235;48.688;9.708;2024-01-16T00:04:40;96950.84;;;23.31;32.78
84134;BME280;74235;48.688;9.708;2024-01-16T00:07:08;96954.69;;;23.30;32.26
84134;BME280;74235;48.688;9.708;2024-01-16T00:09:36;96949.88;;;23.27;33.17
84134;BME280;74235;48.688;9.708;2024-01-16T00:12:04;96944.75;;;23.17;31.94
84134;BME280;74235;48.688;9.708;2024-01-16T00:14:35;96954.94;;;23.11;32.18
84134;BME280;74235;48.688;9.708;2024-01-16T00:17:05;96957.09;;;23.01;32.75
84134;BME280;74235;48.688;9.708;2024-01-16T00:19:32;96952.31;;;22.98;33.77
84134;BME280;74235;48.688;9.708;2024-01-16T00:22:00;96964.88;;;22.94;33.43
84134;BME280;74235;48.688;9.708;2024-01-16T00:24:30;96957.09;;;23.01;32.05
84134;BME280;74235;48.688;9.708;2024-01-16T00:26:57;96956.34;;;23.09;32.97
84134;BME280;74235;48.688;9.708;2024-01-16T00:29:25;96957.19;;;23.18;32.99
84134;BME280;74235;48.688;9.708;2024-01-16T00:31:53;96961.16;;;23.20;33.22
84134;BME280;74235;48.688;9.708;2024-01-16T00:34:22;96955.94;;;23.24;32.95
84134;BME280;74235;48.688;9.708;2024-01-16T00:36:50;96958.03;;;23.27;33.47
84134;BME280;74235;48.688;9.708;2024-01-16T00:39:17;96954.22;;;23.28;31.95
84134;BME280;74235;48.688;9.708;2024-01-16T00:41:45;96958.50;;;23.29;33.54
84134;BME280;74235;48.688;9.708;2024-01-16T00:44:13;96960.09;;;23.30;32.93
84134;BME280;74235;48.688;9.708;2024-01-16T00:46:40;96959.38;;;23.16;32.31
84134;BME280;74235;48.688;9.708;2024-01-16T00:49:08;96961.13;;;23.12;32.35
84134;BME280;74235;48.688;9.708;2024-01-16T00:51:37;96968.44;;;23.03;32.02
84134;BME280;74235;48.688;9.708;2024-01-16T00:54:05;96973.66;;;22.91;32.16
84134;BME280;74235;48.688;9.708;2024-01-16T00:56:35;96971.06;;;22.86;32.83
84134;BME280;74235;48.688;9.708;2024-01-16T00:59:03;96980.66;;;22.92;33.39
84134;BME280;74235;48.688;9.708;2024-01-16T01:01:31;96974.16;;;23.01;32.42
84134;BME280;74235;48.688;9.708;2024-01-16T01:03:58;96973.56;;;23.13;31.85
84134;BME280;74235;48.688;9.708;2024-01-16T01:06:26;96974.22;;;23.18;33.68
84134;BME280;74235;48.688;9.708;2024-01-16T01:08:55;96979.31;;;23.20;32.98
84134;BME280;74235;48.688;9.708;2024-01-16T01:11:23;96983.53;;;23.26;33.24
84134;BME280;74235;48.688;9.708;2024-01-16T01:13:51;96977.00;;;23.27;32.02
84134;BME280;74235;48.688;9.708;2024-01-16T01:16:19;96978.25;;;23.29;32.89
84134;BME280;74235;48.688;9.708;2024-01-16T01:18:46;96977.94;;;23.31;33.32
84134;BME280;74235;48.688;9.708;2024-01-16T01:21:14;96978.25;;;23.21;32.22
84134;BME280;74235;48.688;9.708;2024-01-16T01:23:43;96986.78;;;23.14;32.10
84134;BME280;74235;48.688;9.708;2024-01-16T01:26:12;96986.78;;;23.06;32.90
84134;BME280;74235;48.688;9.708;2024-01-16T01:28:45;96992.47;;;22.96;32.91
84134;BME280;74235;48.688;9.708;2024-01-16T01:31:13;97002.78;;;22.94;33.48
84134;BME280;74235;48.688;9.708;2024-01-16T01:33:41;97007.13;;;22.95;32.19
84134;BME280;74235;48.688;9.708;2024-01-16T01:36:10;97004.28;;;23.00;33.22
84134;BME280;74235;48.688;9.708;2024-01-16T01:38:37;97004.78;;;23.10;33.67
84134;BME280;74235;48.688;9.708;2024-01-16T01:41:05;97008.97;;;23.16;33.24
84134;BME280;74235;48.688;9.708;2024-01-16T01:43:36;97009.13;;;23.20;32.00
84134;BME280;74235;48.688;9.708;2024-01-16T01:46:09;97005.03;;;23.22;31.70
84134;BME280;74235;48.688;9.708;2024-01-16T01:48:38;96999.78;;;23.26;31.91
84134;BME280;74235;48.688;9.708;2024-01-16T01:51:08;97000.41;;;23.23;32.49
84134;BME280;74235;48.688;9.708;2024-01-16T01:53:36;97013.50;;;23.29;32.60
84134;BME280;74235;48.688;9.708;2024-01-16T01:56:13;97010.63;;;23.26;32.72
84134;BME280;74235;48.688;9.708;2024-01-16T01:58:46;97020.41;;;23.13;32.02
84134;BME280;74235;48.688;9.708;2024-01-16T02:01:16;97025.19;;;23.08;33.49
84134;BME280;74235;48.688;9.708;2024-01-16T02:03:46;97025.44;;;22.98;33.66
84134;BME280;74235;48.688;9.708;2024-01-16T02:06:14;97025.13;;;22.91;33.83
84134;BME280;74235;48.688;9.708;2024-01-16T02:08:45;97015.56;;;22.93;33.75
84134;BME280;74235;48.688;9.708;2024-01-16T02:11:13;97021.03;;;23.02;32.62
84134;BME280;74235;48.688;9.708;2024-01-16T02:13:40;97028.84;;;23.12;33.66
84134;BME280;74235;48.688;9.708;2024-01-16T02:16:19;97034.47;;;23.15;33.05
84134;BME280;74235;48.688;9.708;2024-01-16T02:18:47;97032.91;;;23.23;32.15
84134;BME280;74235;48.688;9.708;2024-01-16T02:21:17;97026.38;;;23.24;33.08
84134;BME280;74235;48.688;9.708;2024-01-16T02:23:47;97022.75;;;23.28;32.12
84134;BME280;74235;48.688;9.708;2024-01-16T02:26:16;97007.06;;;23.17;32.41
84134;BME280;74235;48.688;9.708;2024-01-16T02:28:44;97019.72;;;23.30;32.61
84134;BME280;74235;48.688;9.708;2024-01-16T02:31:12;97020.34;;;23.27;32.43
84134;BME280;74235;48.688;9.708;2024-01-16T02:33:39;97016.59;;;23.14;31.98
84134;BME280;74235;48.688;9.708;2024-01-16T02:36:07;97014.66;;;23.06;33.74
84134;BME280;74235;48.688;9.708;2024-01-16T02:38:35;97024.16;;;22.95;31.94
84134;BME280;74235;48.688;9.708;2024-01-16T02:41:04;97013.16;;;22.92;33.21
84134;BME280;74235;48.688;9.708;2024-01-16T02:43:32;97015.88;;;22.92;33.78
84134;BME280;74235;48.688;9.708;2024-01-16T02:46:00;97014.00;;;23.01;32.28
84134;BME280;74235;48.688;9.708;2024-01-16T02:48:27;97014.84;;;23.10;32.08
84134;BME280;74235;48.688;9.708;2024-01-16T02:50:55;97004.97;;;23.14;32.04
84134;BME280;74235;48.688;9.708;2024-01-16T02:53:22;96996.22;;;23.17;32.23
84134;BME280;74235;48.688;9.708;2024-01-16T02:55:50;96973.25;;;23.14;32.49
84134;BME280;74235;48.688;9.708;2024-01-16T02:58:20;96989.44;;;23.28;32.01
84134;BME280;74235;48.688;9.708;2024-01-16T03:00:48;96993.44;;;23.30;31.82
84134;BME280;74235;48.688;9.708;2024-01-16T03:03:16;96984.50;;;23.30;32.65
84134;BME280;74235;48.688;9.708;2024-01-16T03:05:44;96982.72;;;23.25;32.65
84134;BME280;74235;48.688;9.708;2024-01-16T03:08:12;96995.09;;;23.18;32.61
84134;BME280;74235;48.688;9.708;2024-01-16T03:10:40;96990.16;;;23.11;32.17
84134;BME280;74235;48.688;9.708;2024-01-16T03:13:07;96991.22;;;23.02;31.84
84134;BME280;74235;48.688;9.708;2024-01-16T03:15:36;96990.88;;;22.95;33.79
84134;BME280;74235;48.688;9.708;2024-01-16T03:18:04;96987.66;;;22.93;33.54
84134;BME280;74235;48.688;9.708;2024-01-16T03:20:32;96991.34;;;22.97;33.40
84134;BME280;74235;48.688;9.708;2024-01-16T03:23:00;96998.91;;;23.08;32.58
84134;BME280;74235;48.688;9.708;2024-01-16T03:25:27;96995.72;;;23.15;32.44
84134;BME280;74235;48.688;9.708;2024-01-16T03:27:55;96999.09;;;23.20;31.75
84134;BME280;74235;48.688;9.708;2024-01-16T03:30:23;97001.88;;;23.29;32.35
84134;BME280;74235;48.688;9.708;2024-01-16T03:32:52;97003.47;;;23.30;33.14
84134;BME280;74235;48.688;9.708;2024-01-16T03:35:20;97005.06;;;23.31;32.11
84134;BME280;74235;48.688;9.708;2024-01-16T03:37:47;96994.41;;;23.34;33.06
84134;BME280;74235;48.688;9.708;2024-01-16T03:40:16;96993.25;;;23.27;32.15
84134;BME280;74235;48.688;9.708;2024-01-16T03:42:43;96986.66;;;23.19;32.94
84134;BME280;74235;48.688;9.708;2024-01-16T03:45:11;96991.91;;;23.16;31.95
84134;BME280;74235;48.688;9.708;2024-01-16T03:47:42;96993.59;;;23.03;31.68
84134;BME280;74235;48.688;9.708;2024-01-16T03:50:11;96995.66;;;22.98;33.63
84134;BME280;74235;48.688;9.708;2024-01-16T03:52:39;96997.13;;;23.04;33.48
84134;BME280;74235;48.688;9.708;2024-01-16T03:55:07;96999.56;;;23.14;33.04
84134;BME280;74235;48.688;9.708;2024-01-16T03:57:34;96998.19;;;23.25;32.65
84134;BME280;74235;48.688;9.708;2024-01-16T04:00:02;96998.03;;;23.30;31.34
84134;BME280;74235;48.688;9.708;2024-01-16T04:02:32;97003.97;;;23.32;31.54
84134;BME280;74235;48.688;9.708;2024-01-16T04:05:00;97002.69;;;23.38;32.63
84134;BME280;74235;48.688;9.708;2024-01-16T04:07:29;97003.19;;;23.40;33.07
84134;BME280;74235;48.688;9.708;2024-01-16T04:09:57;97000.78;;;23.38;31.50
84134;BME280;74235;48.688;9.708;2024-01-16T04:12:24;96992.34;;;23.40;32.31
84134;BME280;74235;48.688;9.708;2024-01-16T04:14:52;97005.41;;;23.38;31.42
84134;BME280;74235;48.688;9.708;2024-01-16T04:17:19;97000.44;;;23.31;32.71
84134;BME280;74235;48.688;9.708;2024-01-16T04:19:47;97007.53;;;23.19;32.08
84134;BME280;74235;48.688;9.708;2024-01-16T04:22:15;97001.00;;;23.11;33.01
84134;BME280;74235;48.688;9.708;2024-01-16T04:24:44;97004.78;;;23.02;32.03
84134;BME280;74235;48.688;9.708;2024-01-16T04:27:12;97001.06;;;22.98;32.48
84134;BME280;74235;48.688;9.708;2024-01-16T04:29:39;97011.63;;;23.08;32.35
84134;BME280;74235;48.688;9.708;2024-01-16T04:32:07;97012.00;;;23.15;32.59
84134;BME280;74235;48.688;9.708;2024-01-16T04:34:35;97011.06;;;23.19;31.52
84134;BME280;74235;48.688;9.708;2024-01-16T04:37:03;97017.63;;;23.27;32.92
84134;BME280;74235;48.688;9.708;2024-01-16T04:39:30;97014.16;;;23.35;31.95
84134;BME280;74235;48.688;9.708;2024-01-16T04:42:00;97022.94;;;23.32;31.33
84134;BME280;74235;48.688;9.708;2024-01-16T04:44:27;97015.59;;;23.32;32.09
84134;BME280;74235;48.688;9.708;2024-01-16T04:46:55;97007.63;;;23.36;31.57
84134;BME280;74235;48.688;9.708;2024-01-16T04:49:23;97012.41;;;23.39;31.62
84134;BME280;74235;48.688;9.708;2024-01-16T04:51:51;97001.88;;;23.29;32.37
84134;BME280;74235;48.688;9.708;2024-01-16T04:54:18;97011.56;;;23.21;31.50
84134;BME280;74235;48.688;9.708;2024-01-16T04:56:46;97014.84;;;23.10;32.13
84134;BME280;74235;48.688;9.708;2024-01-16T04:59:15;97013.53;;;22.99;32.13
84134;BME280;74235;48.688;9.708;2024-01-16T05:01:43;97019.56;;;22.96;31.79
84134;BME280;74235;48.688;9.708;2024-01-16T05:04:11;97023.22;;;23.00;33.40
84134;BME280;74235;48.688;9.708;2024-01-16T05:06:38;97012.44;;;23.08;33.56
84134;BME280;74235;48.688;9.708;2024-01-16T05:09:06;97006.56;;;23.15;33.31
84134;BME280;74235;48.688;9.708;2024-01-16T05:11:36;97006.63;;;23.23;31.43
84134;BME280;74235;48.688;9.708;2024-01-16T05:14:04;97003.47;;;23.30;32.17
84134;BME280;74235;48.688;9.708;2024-01-16T05:16:33;96999.00;;;23.34;32.20
84134;BME280;74235;48.688;9.708;2024-01-16T05:19:01;97000.59;;;23.35;31.35
84134;BME280;74235;48.688;9.708;2024-01-16T05:21:28;96996.31;;;23.34;31.70
84134;BME280;74235;48.688;9.708;2024-01-16T05:23:57;96994.22;;;23.31;33.01
84134;BME280;74235;48.688;9.708;2024-01-16T05:26:24;96989.91;;;23.30;31.63
84134;BME280;74235;48.688;9.708;2024-01-16T05:28:52;96989.09;;;23.21;32.53
84134;BME280;74235;48.688;9.708;2024-01-16T05:31:20;96985.50;;;23.12;33.15
84134;BME280;74235;48.688;9.708;2024-01-16T05:33:49;96992.81;;;23.03;31.82
84134;BME280;74235;48.688;9.708;2024-01-16T05:36:17;96991.19;;;22.93;33.67
84134;BME280;74235;48.688;9.708;2024-01-16T05:38:45;96986.06;;;22.92;32.99
84134;BME280;74235;48.688;9.708;2024-01-16T05:41:13;96984.81;;;22.98;33.08
84134;BME280;74235;48.688;9.708;2024-01-16T05:43:41;96980.72;;;23.09;31.91
84134;BME280;74235;48.688;9.708;2024-01-16T05:46:08;96982.03;;;23.20;32.54
84134;BME280;74235;48.688;9.708;2024-01-16T05:48:36;96978.72;;;23.23;32.74
84134;BME280;74235;48.688;9.708;2024-01-16T05:51:05;96971.09;;;23.25;33.13
84134;BME280;74235;48.688;9.708;2024-01-16T05:53:33;96977.78;;;23.27;32.75
84134;BME280;74235;48.688;9.708;2024-01-16T05:56:01;96973.81;;;23.25;31.60
84134;BME280;74235;48.688;9.708;2024-01-16T05:58:28;96969.34;;;23.29;31.96
84134;BME280;74235;48.688;9.708;2024-01-16T06:00:56;96969.81;;;23.31;32.83
84134;BME280;74235;48.688;9.708;2024-01-16T06:03:23;96975.41;;;23.26;32.54
84134;BME280;74235;48.688;9.708;2024-01-16T06:05:51;96969.75;;;23.14;32.90
84134;BME280;74235;48.688;9.708;2024-01-16T06:08:20;96963.03;;;23.03;31.51
84134;BME280;74235;48.688;9.708;2024-01-16T06:10:48;96965.38;;;22.96;32.02
84134;BME280;74235;48.688;9.708;2024-01-16T06:13:18;96969.81;;;22.92;31.82
84134;BME280;74235;48.688;9.708;2024-01-16T06:15:46;96975.59;;;22.99;32.29
84134;BME280;74235;48.688;9.708;2024-01-16T06:18:14;96979.13;;;23.08;31.61
84134;BME280;74235;48.688;9.708;2024-01-16T06:20:41;96973.25;;;23.14;32.99
84134;BME280;74235;48.688;9.708;2024-01-16T06:23:09;96969.13;;;23.17;32.83
84134;BME280;74235;48.688;9.708;2024-01-16T06:25:38;96962.97;;;23.25;32.79
84134;BME280;74235;48.688;9.708;2024-01-16T06:28:06;96959.13;;;23.26;32.40
84134;BME280;74235;48.688;9.708;2024-01-16T06:30:34;96960.72;;;23.27;32.66
84134;BME280;74235;48.688;9.708;2024-01-16T06:33:03;96980.19;;;23.29;31.23
84134;BME280;74235;48.688;9.708;2024-01-16T06:35:31;96977.59;;;23.24;31.56
84134;BME280;74235;48.688;9.708;2024-01-16T06:37:58;96969.13;;;23.17;32.89
84134;BME280;74235;48.688;9.708;2024-01-16T06:40:26;96972.13;;;23.07;34.26
84134;BME280;74235;48.688;9.708;2024-01-16T06:42:55;96978.00;;;22.70;33.71
84134;BME280;74235;48.688;9.708;2024-01-16T06:45:22;96980.28;;;22.54;34.42
84134;BME280;74235;48.688;9.708;2024-01-16T06:47:50;96987.25;;;22.69;35.04
84134;BME280;74235;48.688;9.708;2024-01-16T06:50:18;96982.81;;;22.73;34.40
84134;BME280;74235;48.688;9.708;2024-01-16T06:52:47;96977.44;;;22.90;34.06
84134;BME280;74235;48.688;9.708;2024-01-16T06:55:14;96982.44;;;23.05;34.59
84134;BME280;74235;48.688;9.708;2024-01-16T06:57:42;96973.56;;;23.13;34.63
84134;BME280;74235;48.688;9.708;2024-01-16T07:00:13;96975.25;;;23.22;35.27
84134;BME280;74235;48.688;9.708;2024-01-16T07:02:43;96969.97;;;23.26;34.06
84134;BME280;74235;48.688;9.708;2024-01-16T07:05:11;96981.63;;;23.35;33.89
84134;BME280;74235;48.688;9.708;2024-01-16T07:07:39;96981.00;;;23.38;34.28
84134;BME280;74235;48.688;9.708;2024-01-16T07:10:08;96987.25;;;23.38;35.16
84134;BME280;74235;48.688;9.708;2024-01-16T07:12:40;96991.06;;;23.46;35.69
84134;BME280;74235;48.688;9.708;2024-01-16T07:15:09;97003.19;;;23.40;35.17
84134;BME280;74235;48.688;9.708;2024-01-16T07:17:38;96992.00;;;23.33;35.72
84134;BME280;74235;48.688;9.708;2024-01-16T07:20:06;96993.88;;;23.24;36.86
84134;BME280;74235;48.688;9.708;2024-01-16T07:22:36;96996.22;;;23.17;36.95
84134;BME280;74235;48.688;9.708;2024-01-16T07:25:04;96995.09;;;23.18;36.84
84134;BME280;74235;48.688;9.708;2024-01-16T07:27:32;96985.50;;;23.12;33.57
84134;BME280;74235;48.688;9.708;2024-01-16T07:29:59;96996.34;;;23.12;33.10
84134;BME280;74235;48.688;9.708;2024-01-16T07:32:27;96991.75;;;23.12;32.60
84134;BME280;74235;48.688;9.708;2024-01-16T07:35:01;96979.78;;;23.13;32.75
84134;BME280;74235;48.688;9.708;2024-01-16T07:37:29;96979.97;;;23.17;30.96
84134;BME280;74235;48.688;9.708;2024-01-16T07:39:56;96981.56;;;23.18;31.37
84134;BME280;74235;48.688;9.708;2024-01-16T07:42:24;96981.75;;;23.21;30.54
84134;BME280;74235;48.688;9.708;2024-01-16T07:44:52;96979.63;;;23.18;30.56
84134;BME280;74235;48.688;9.708;2024-01-16T07:47:20;96978.97;;;23.13;30.71
84134;BME280;74235;48.688;9.708;2024-01-16T07:49:47;96987.88;;;23.05;30.50
84134;BME280;74235;48.688;9.708;2024-01-16T07:52:16;96988.38;;;23.07;31.60
84134;BME280;74235;48.688;9.708;2024-01-16T07:54:44;96999.22;;;23.07;32.52
84134;BME280;74235;48.688;9.708;2024-01-16T07:57:11;96999.38;;;23.10;34.39
84134;BME280;74235;48.688;9.708;2024-01-16T07:59:40;97000.81;;;23.08;34.53
84134;BME280;74235;48.688;9.708;2024-01-16T08:02:08;96994.38;;;23.26;33.07
84134;BME280;74235;48.688;9.708;2024-01-16T08:04:36;96986.91;;;23.40;33.51
84134;BME280;74235;48.688;9.708;2024-01-16T08:07:04;96992.38;;;23.57;35.04
84134;BME280;74235;48.688;9.708;2024-01-16T08:09:33;96995.25;;;23.61;34.19
84134;BME280;74235;48.688;9.708;2024-01-16T08:12:01;96996.53;;;23.63;34.13
84134;BME280;74235;48.688;9.708;2024-01-16T08:14:30;96998.47;;;23.71;35.60
84134;BME280;74235;48.688;9.708;2024-01-16T08:16:57;96992.09;;;23.76;34.24
84134;BME280;74235;48.688;9.708;2024-01-16T08:19:26;96990.81;;;23.73;34.37
84134;BME280;74235;48.688;9.708;2024-01-16T08:21:54;97003.41;;;23.78;34.62
84134;BME280;74235;48.688;9.708;2024-01-16T08:24:22;96995.94;;;23.75;35.32
84134;BME280;74235;48.688;9.708;2024-01-16T08:26:51;96996.19;;;23.56;34.94
84134;BME280;74235;48.688;9.708;2024-01-16T08:29:19;96987.38;;;23.42;33.26
84134;BME280;74235;48.688;9.708;2024-01-16T08:31:47;96985.97;;;23.36;35.38
84134;BME280;74235;48.688;9.708;2024-01-16T08:34:15;96990.41;;;23.32;34.64
84134;BME280;74235;48.688;9.708;2024-01-16T08:36:43;96988.34;;;23.37;35.35
84134;BME280;74235;48.688;9.708;2024-01-16T08:39:10;96991.56;;;23.48;34.40
84134;BME280;74235;48.688;9.708;2024-01-16T08:41:38;96993.31;;;23.61;35.02
84134;BME280;74235;48.688;9.708;2024-01-16T08:44:07;96998.63;;;23.75;35.29
84134;BME280;74235;48.688;9.708;2024-01-16T08:46:35;96990.97;;;23.77;34.55
84134;BME280;74235;48.688;9.708;2024-01-16T08:49:03;96985.06;;;23.83;33.89
84134;BME280;74235;48.688;9.708;2024-01-16T08:51:31;96985.41;;;23.90;35.21
84134;BME280;74235;48.688;9.708;2024-01-16T08:54:01;96992.88;;;23.85;35.00
84134;BME280;74235;48.688;9.708;2024-01-16T08:56:29;96978.69;;;23.79;33.64
84134;BME280;74235;48.688;9.708;2024-01-16T08:58:56;96982.53;;;23.78;33.69
84134;BME280;74235;48.688;9.708;2024-01-16T09:01:25;96983.78;;;23.72;33.87
84134;BME280;74235;48.688;9.708;2024-01-16T09:03:53;96980.28;;;23.72;33.80
84134;BME280;74235;48.688;9.708;2024-01-16T09:06:21;96983.44;;;23.65;35.01
84134;BME280;74235;48.688;9.708;2024-01-16T09:08:49;96986.94;;;23.57;35.09
84134;BME280;74235;48.688;9.708;2024-01-16T09:11:16;96977.06;;;23.52;35.98
84134;BME280;74235;48.688;9.708;2024-01-16T09:13:44;96974.03;;;23.54;36.56
84134;BME280;74235;48.688;9.708;2024-01-16T09:16:12;96991.94;;;23.64;35.36
84134;BME280;74235;48.688;9.708;2024-01-16T09:18:42;96983.94;;;23.67;35.31
84134;BME280;74235;48.688;9.708;2024-01-16T09:21:10;96984.91;;;23.71;36.32
84134;BME280;74235;48.688;9.708;2024-01-16T09:23:37;96992.56;;;23.78;35.48
84134;BME280;74235;48.688;9.708;2024-01-16T09:26:05;96984.91;;;23.71;35.07
84134;BME280;74235;48.688;9.708;2024-01-16T09:28:32;96986.81;;;23.79;35.41
84134;BME280;74235;48.688;9.708;2024-01-16T09:31:00;96995.59;;;23.76;33.59
84134;BME280;74235;48.688;9.708;2024-01-16T09:33:28;96985.53;;;23.60;32.67
84134;BME280;74235;48.688;9.708;2024-01-16T09:35:57;96999.22;;;23.54;33.07
84134;BME280;74235;48.688;9.708;2024-01-16T09:38:25;96992.03;;;23.50;32.78
84134;BME280;74235;48.688;9.708;2024-01-16T09:40:53;96999.69;;;23.48;34.83
84134;BME280;74235;48.688;9.708;2024-01-16T09:43:26;97009.56;;;23.44;34.73
84134;BME280;74235;48.688;9.708;2024-01-16T09:45:55;97001.91;;;23.46;33.93
84134;BME280;74235;48.688;9.708;2024-01-16T09:48:28;97007.97;;;23.51;33.80
84134;BME280;74235;48.688;9.708;2024-01-16T09:50:57;96998.13;;;23.64;33.58
84134;BME280;74235;48.688;9.708;2024-01-16T09:53:25;96995.44;;;23.73;34.81
84134;BME280;74235;48.688;9.708;2024-01-16T09:55:54;96987.31;;;23.73;33.81
84134;BME280;74235;48.688;9.708;2024-01-16T09:58:25;96989.88;;;23.86;35.27
84134;BME280;74235;48.688;9.708;2024-01-16T10:00:56;96996.41;;;23.85;33.90
84134;BME280;74235;48.688;9.708;2024-01-16T10:03:24;96997.88;;;23.91;33.54
84134;BME280;74235;48.688;9.708;2024-01-16T10:05:52;96997.38;;;23.89;34.58
84134;BME280;74235;48.688;9.708;2024-01-16T10:08:21;96995.78;;;23.88;34.46
84134;BME280;74235;48.688;9.708;2024-01-16T10:10:49;96989.88;;;23.86;34.04
84134;BME280;74235;48.688;9.708;2024-01-16T10:13:20;97004.38;;;23.82;34.47
84134;BME280;74235;48.688;9.708;2024-01-16T10:15:49;96995.28;;;23.69;34.36
84134;BME280;74235;48.688;9.708;2024-01-16T10:18:22;96996.66;;;23.49;32.59
84134;BME280;74235;48.688;9.708;2024-01-16T10:20:52;96994.22;;;23.31;33.46
84134;BME280;74235;48.688;9.708;2024-01-16T10:23:26;96995.31;;;23.21;32.34
84134;BME280;74235;48.688;9.708;2024-01-16T10:26:05;97003.13;;;23.23;32.48
84134;BME280;74235;48.688;9.708;2024-01-16T10:28:35;96989.09;;;23.29;31.71
84134;BME280;74235;48.688;9.708;2024-01-16T10:31:04;96986.91;;;23.40;32.51
84134;BME280;74235;48.688;9.708;2024-01-16T10:33:32;96978.78;;;23.40;32.20
84134;BME280;74235;48.688;9.708;2024-01-16T10:36:09;96967.63;;;23.50;32.37
84134;BME280;74235;48.688;9.708;2024-01-16T10:38:40;96965.13;;;23.62;33.21
84134;BME280;74235;48.688;9.708;2024-01-16T10:41:09;96966.09;;;23.66;33.23
84134;BME280;74235;48.688;9.708;2024-01-16T10:43:38;96959.06;;;23.74;32.95
84134;BME280;74235;48.688;9.708;2024-01-16T10:46:08;96956.34;;;23.82;32.42
84134;BME280;74235;48.688;9.708;2024-01-16T10:48:36;96957.63;;;23.76;33.71
84134;BME280;74235;48.688;9.708;2024-01-16T10:51:05;96950.47;;;23.80;32.05
84134;BME280;74235;48.688;9.708;2024-01-16T10:53:34;96945.19;;;23.75;34.02
84134;BME280;74235;48.688;9.708;2024-01-16T10:56:05;96944.84;;;23.68;34.30
84134;BME280;74235;48.688;9.708;2024-01-16T10:58:40;96945.31;;;23.53;33.11
84134;BME280;74235;48.688;9.708;2024-01-16T11:01:11;96944.53;;;23.44;33.36
84134;BME280;74235;48.688;9.708;2024-01-16T11:03:44;96949.94;;;23.44;33.48
84134;BME280;74235;48.688;9.708;2024-01-16T11:06:14;96947.41;;;23.56;33.65
84134;BME280;74235;48.688;9.708;2024-01-16T11:08:45;96949.19;;;23.69;34.11
84134;BME280;74235;48.688;9.708;2024-01-16T11:11:15;96954.91;;;23.76;33.58
84134;BME280;74235;48.688;9.708;2024-01-16T11:13:46;96954.44;;;23.83;33.24
84134;BME280;74235;48.688;9.708;2024-01-16T11:16:14;96946.81;;;23.93;33.32
84134;BME280;74235;48.688;9.708;2024-01-16T11:18:42;96941.53;;;23.97;33.09
84134;BME280;74235;48.688;9.708;2024-01-16T11:21:11;96936.47;;;23.95;32.48
84134;BME280;74235;48.688;9.708;2024-01-16T11:23:45;96934.69;;;23.99;33.38
84134;BME280;74235;48.688;9.708;2024-01-16T11:26:29;96921.44;;;23.98;33.03
84134;BME280;74235;48.688;9.708;2024-01-16T11:29:01;96919.06;;;23.96;32.53
84134;BME280;74235;48.688;9.708;2024-01-16T11:31:48;96910.91;;;23.96;32.08
84134;BME280;74235;48.688;9.708;2024-01-16T11:34:54;96899.09;;;23.84;33.32
84134;BME280;74235;48.688;9.708;2024-01-16T11:37:27;96890.63;;;23.68;33.48
84134;BME280;74235;48.688;9.708;2024-01-16T11:40:23;96894.13;;;23.60;32.92
84134;BME280;74235;48.688;9.708;2024-01-16T11:42:54;96879.16;;;23.54;33.01
84134;BME280;74235;48.688;9.708;2024-01-16T11:45:50;96888.88;;;23.72;33.39
84134;BME280;74235;48.688;9.708;2024-01-16T11:48:18;96876.75;;;23.87;31.83
84134;BME280;74235;48.688;9.708;2024-01-16T11:50:47;96880.75;;;23.98;32.90
84134;BME280;74235;48.688;9.708;2024-01-16T11:53:35;96866.69;;;24.04;32.63
84134;BME280;74235;48.688;9.708;2024-01-16T11:56:21;96863.66;;;24.14;33.01
84134;BME280;74235;48.688;9.708;2024-01-16T11:59:20;96855.31;;;24.19;33.03
84134;BME280;74235;48.688;9.708;2024-01-16T12:01:57;96857.84;;;24.24;32.71
84134;BME280;74235;48.688;9.708;2024-01-16T12:04:28;96846.69;;;24.26;33.17
84134;BME280;74235;48.688;9.708;2024-01-16T12:06:59;96847.00;;;24.24;33.76
84134;BME280;74235;48.688;9.708;2024-01-16T12:09:31;96842.19;;;24.30;32.94
84134;BME280;74235;48.688;9.708;2024-01-16T12:12:00;96839.81;;;24.28;33.57
84134;BME280;74235;48.688;9.708;2024-01-16T12:14:33;96838.72;;;24.29;33.29
84134;BME280;74235;48.688;9.708;2024-01-16T12:17:10;96841.75;;;24.19;33.30
84134;BME280;74235;48.688;9.708;2024-01-16T12:19:38;96835.50;;;24.27;33.47
84134;BME280;74235;48.688;9.708;2024-01-16T12:22:10;96831.22;;;24.18;33.29
84134;BME280;74235;48.688;9.708;2024-01-16T12:24:38;96826.31;;;24.11;34.76
84134;BME280;74235;48.688;9.708;2024-01-16T12:27:05;96828.72;;;24.04;33.38
84134;BME280;74235;48.688;9.708;2024-01-16T12:29:35;96827.78;;;24.00;33.47
84134;BME280;74235;48.688;9.708;2024-01-16T12:32:08;96816.09;;;24.00;34.45
84134;BME280;74235;48.688;9.708;2024-01-16T12:34:43;96804.16;;;24.01;34.35
84134;BME280;74235;48.688;9.708;2024-01-16T12:37:13;96800.13;;;24.07;34.29
84134;BME280;74235;48.688;9.708;2024-01-16T12:39:40;96803.63;;;24.16;34.01
84134;BME280;74235;48.688;9.708;2024-01-16T12:42:09;96794.38;;;24.17;35.29
84134;BME280;74235;48.688;9.708;2024-01-16T12:44:40;96790.38;;;24.14;34.53
84134;BME280;74235;48.688;9.708;2024-01-16T12:47:08;96787.41;;;23.99;33.80
84134;BME280;74235;48.688;9.708;2024-01-16T12:49:39;96784.19;;;23.97;34.55
84134;BME280;74235;48.688;9.708;2024-01-16T12:52:18;96782.78;;;23.82;34.68
84134;BME280;74235;48.688;9.708;2024-01-16T12:54:46;96773.88;;;23.73;34.75
84134;BME280;74235;48.688;9.708;2024-01-16T12:57:17;96782.03;;;23.65;35.30
84134;BME280;74235;48.688;9.708;2024-01-16T12:59:48;96773.91;;;23.56;34.53
84134;BME280;74235;48.688;9.708;2024-01-16T13:02:21;96767.84;;;23.50;35.64
84134;BME280;74235;48.688;9.708;2024-01-16T13:04:56;96770.25;;;23.43;35.35
84134;BME280;74235;48.688;9.708;2024-01-16T13:07:25;96771.84;;;23.36;35.17
84134;BME280;74235;48.688;9.708;2024-01-16T13:10:07;96768.81;;;23.29;36.82
84134;BME280;74235;48.688;9.708;2024-01-16T13:12:36;96764.50;;;23.19;35.67